createdAt,value
2019-02-14T00:01:20.114Z,4.62
2019-02-14T00:03:26.479Z,4.60
2019-02-14T00:05:32.754Z,4.62
2019-02-14T00:07:39.086Z,4.63
2019-02-14T00:09:45.533Z,4.61
2019-02-14T00:11:51.844Z,4.58
2019-02-14T00:13:58.153Z,4.60
2019-02-14T00:16:04.388Z,4.60
2019-02-14T00:18:10.640Z,4.59
2019-02-14T00:20:17.749Z,4.62
2019-02-14T00:22:24.052Z,4.62
2019-02-14T00:24:30.375Z,4.59
2019-02-14T00:26:36.667Z,4.62
2019-02-14T00:28:43.083Z,4.60
2019-02-14T00:30:49.402Z,4.62
2019-02-14T00:32:55.621Z,4.63
2019-02-14T00:35:02.202Z,4.62
2019-02-14T00:37:08.509Z,4.61
2019-02-14T00:39:14.649Z,4.59
2019-02-14T00:41:20.885Z,4.59
2019-02-14T00:43:27.338Z,4.57
2019-02-14T00:45:34.783Z,4.59
2019-02-14T00:47:41.199Z,4.59
2019-02-14T00:49:47.385Z,4.62
2019-02-14T00:51:53.609Z,4.62
2019-02-14T00:54:00.046Z,4.62
2019-02-14T00:56:07.952Z,4.62
2019-02-14T00:58:14.296Z,4.62
2019-02-14T01:00:20.526Z,4.61
2019-02-14T01:02:27.004Z,4.62
2019-02-14T01:04:33.219Z,4.64
2019-02-14T01:06:39.610Z,4.63
2019-02-14T01:08:45.945Z,4.63
2019-02-14T01:10:52.317Z,4.63
2019-02-14T01:12:58.681Z,4.63
2019-02-14T01:15:08.896Z,4.64
2019-02-14T01:17:15.385Z,4.66
2019-02-14T01:19:21.838Z,4.67
2019-02-14T01:21:29.246Z,4.69
2019-02-14T01:23:36.726Z,4.63
2019-02-14T01:25:43.077Z,4.62
2019-02-14T01:27:49.459Z,4.64
2019-02-14T01:29:55.678Z,4.64
2019-02-14T01:32:02.027Z,4.59
2019-02-14T01:34:08.416Z,4.55
2019-02-14T01:36:14.785Z,4.58
2019-02-14T01:38:21.007Z,4.60
2019-02-14T01:40:27.397Z,4.65
2019-02-14T01:42:33.877Z,4.60
2019-02-14T01:44:42.000Z,4.61
2019-02-14T01:46:48.425Z,4.58
2019-02-14T01:48:54.917Z,4.58
2019-02-14T01:51:01.518Z,4.61
2019-02-14T01:53:07.790Z,4.63
2019-02-14T01:55:14.161Z,4.63
2019-02-14T01:57:20.948Z,4.60
2019-02-14T01:59:27.150Z,4.60
2019-02-14T02:01:33.517Z,4.65
2019-02-14T02:03:39.953Z,4.64
2019-02-14T02:05:50.820Z,4.63
2019-02-14T02:07:54.192Z,4.60
2019-02-14T02:10:00.423Z,4.60
2019-02-14T02:12:06.964Z,4.59
2019-02-14T02:14:13.323Z,4.63
2019-02-14T02:16:19.539Z,4.64
2019-02-14T02:18:26.062Z,4.62
2019-02-14T02:20:33.561Z,4.60
2019-02-14T02:22:39.984Z,4.61
2019-02-14T02:24:46.228Z,4.58
2019-02-14T02:26:52.386Z,4.60
2019-02-14T02:28:58.535Z,4.62
2019-02-14T02:31:04.715Z,4.60
2019-02-14T02:33:10.929Z,4.62
2019-02-14T02:35:17.241Z,4.62
2019-02-14T02:37:23.539Z,4.60
2019-02-14T02:39:29.821Z,4.62
2019-02-14T02:41:36.046Z,4.60
2019-02-14T02:43:42.413Z,4.62
2019-02-14T02:45:48.637Z,4.59
2019-02-14T02:47:54.943Z,4.58
2019-02-14T02:50:01.118Z,4.58
2019-02-14T02:52:08.362Z,4.61
2019-02-14T02:54:14.588Z,4.61
2019-02-14T02:56:20.906Z,4.59
2019-02-14T02:58:27.218Z,4.58
2019-02-14T03:00:33.461Z,4.64
2019-02-14T03:02:39.928Z,4.66
2019-02-14T03:04:46.092Z,4.63
2019-02-14T03:06:52.409Z,4.62
2019-02-14T03:08:58.579Z,4.65
2019-02-14T03:11:04.811Z,4.64
2019-02-14T03:13:10.973Z,4.66
2019-02-14T03:15:17.656Z,4.66
2019-02-14T03:17:23.877Z,4.70
2019-02-14T03:19:30.108Z,4.65
2019-02-14T03:21:36.350Z,4.68
2019-02-14T03:23:42.637Z,4.65
2019-02-14T03:25:48.876Z,4.67
2019-02-14T03:27:55.142Z,4.70
2019-02-14T03:30:01.435Z,4.69
2019-02-14T03:32:07.694Z,4.72
2019-02-14T03:34:14.026Z,4.73
2019-02-14T03:36:20.334Z,4.70
2019-02-14T03:38:26.473Z,4.69
2019-02-14T03:40:32.795Z,4.72
2019-02-14T03:42:39.038Z,4.71
2019-02-14T03:44:45.361Z,4.72
2019-02-14T03:46:51.636Z,4.69
2019-02-14T03:48:57.823Z,4.70
2019-02-14T03:51:04.177Z,4.72
2019-02-14T03:53:10.482Z,4.71
2019-02-14T03:55:16.635Z,4.71
2019-02-14T03:57:22.936Z,4.74
2019-02-14T03:59:29.129Z,4.71
2019-02-14T04:01:35.423Z,4.71
2019-02-14T04:03:41.649Z,4.72
2019-02-14T04:05:47.973Z,4.70
2019-02-14T04:07:54.198Z,4.70
2019-02-14T04:10:00.424Z,4.72
2019-02-14T04:12:06.677Z,4.70
2019-02-14T04:14:12.903Z,4.71
2019-02-14T04:16:19.145Z,4.73
2019-02-14T04:18:25.392Z,4.74
2019-02-14T04:20:31.675Z,4.73
2019-02-14T04:22:37.956Z,4.75
2019-02-14T04:24:44.620Z,4.72
2019-02-14T04:26:51.240Z,4.75
2019-02-14T04:28:57.403Z,4.74
2019-02-14T04:31:03.574Z,4.70
2019-02-14T04:33:09.816Z,4.69
2019-02-14T04:35:16.114Z,4.72
2019-02-14T04:37:22.431Z,4.70
2019-02-14T04:39:28.748Z,4.71
2019-02-14T04:41:34.913Z,4.69
2019-02-14T04:43:41.165Z,4.68
2019-02-14T04:45:47.309Z,4.66
2019-02-14T04:47:53.538Z,4.66
2019-02-14T04:49:59.634Z,4.68
2019-02-14T04:52:05.933Z,4.64
2019-02-14T04:54:12.097Z,4.61
2019-02-14T04:56:18.575Z,4.64
2019-02-14T04:58:24.786Z,4.64
2019-02-14T05:00:31.003Z,4.63
2019-02-14T05:02:37.262Z,4.63
2019-02-14T05:04:43.547Z,4.60
2019-02-14T05:06:49.840Z,4.64
2019-02-14T05:08:56.182Z,4.67
2019-02-14T05:11:02.477Z,4.66
2019-02-14T05:13:08.666Z,4.65
2019-02-14T05:15:15.243Z,4.68
2019-02-14T05:17:21.635Z,4.64
2019-02-14T05:19:27.928Z,4.60
2019-02-14T05:21:34.270Z,4.62
2019-02-14T05:23:40.631Z,4.62
2019-02-14T05:25:47.847Z,4.60
2019-02-14T05:27:54.096Z,4.58
2019-02-14T05:30:00.425Z,4.57
2019-02-14T05:32:06.696Z,4.55
2019-02-14T05:34:12.948Z,4.59
2019-02-14T05:36:19.311Z,4.60
2019-02-14T05:38:25.543Z,4.55
2019-02-14T05:40:32.043Z,4.56
2019-02-14T05:42:38.461Z,4.58
2019-02-14T05:44:44.757Z,4.59
2019-02-14T05:46:51.227Z,4.59
2019-02-14T05:48:57.650Z,4.58
2019-02-14T05:51:03.862Z,4.58
2019-02-14T05:53:10.133Z,4.62
2019-02-14T05:55:16.346Z,4.62
2019-02-14T05:57:22.665Z,4.61
2019-02-14T05:59:29.007Z,4.62
2019-02-14T06:01:35.233Z,4.62
2019-02-14T06:03:41.405Z,4.63
2019-02-14T06:05:47.592Z,4.60
2019-02-14T06:07:53.744Z,4.65
2019-02-14T06:09:59.903Z,4.58
2019-02-14T06:12:06.175Z,4.60
2019-02-14T06:14:12.321Z,4.55
2019-02-14T06:16:18.686Z,4.59
2019-02-14T06:18:24.870Z,4.58
2019-02-14T06:20:31.099Z,4.61
2019-02-14T06:22:37.385Z,4.64
2019-02-14T06:24:43.671Z,4.64
2019-02-14T06:26:49.903Z,4.60
2019-02-14T06:28:56.266Z,4.62
2019-02-14T06:31:02.654Z,4.62
2019-02-14T06:33:08.894Z,4.66
2019-02-14T06:35:15.142Z,4.66
2019-02-14T06:37:21.346Z,4.68
2019-02-14T06:39:27.579Z,4.68
2019-02-14T06:41:33.798Z,4.66
2019-02-14T06:43:39.990Z,4.71
2019-02-14T06:45:46.146Z,4.72
2019-02-14T06:47:52.363Z,4.74
2019-02-14T06:49:59.539Z,4.70
2019-02-14T06:52:05.707Z,4.72
2019-02-14T06:54:12.010Z,4.77
2019-02-14T06:56:18.278Z,4.76
2019-02-14T06:58:24.425Z,4.84
2019-02-14T07:00:30.586Z,4.88
2019-02-14T07:02:36.763Z,4.91
2019-02-14T07:04:42.929Z,4.93
2019-02-14T07:06:49.155Z,5.00
2019-02-14T07:08:55.395Z,5.01
2019-02-14T07:11:01.576Z,5.08
2019-02-14T07:13:08.003Z,5.17
2019-02-14T07:15:15.201Z,5.21
2019-02-14T07:17:21.495Z,5.19
2019-02-14T07:19:27.710Z,5.23
2019-02-14T07:21:34.023Z,5.20
2019-02-14T07:23:40.184Z,5.23
2019-02-14T07:25:46.475Z,5.17
2019-02-14T07:27:52.788Z,5.16
2019-02-14T07:29:59.022Z,5.23
2019-02-14T07:32:05.239Z,5.20
2019-02-14T07:34:11.807Z,5.21
2019-02-14T07:36:18.111Z,5.20
2019-02-14T07:38:24.253Z,5.19
2019-02-14T07:40:30.655Z,5.34
2019-02-14T07:42:37.143Z,5.37
2019-02-14T07:44:43.500Z,5.51
2019-02-14T07:46:49.767Z,5.54
2019-02-14T07:48:56.051Z,5.69
2019-02-14T07:51:02.476Z,5.64
2019-02-14T07:53:08.852Z,5.67
2019-02-14T07:55:15.512Z,5.55
2019-02-14T07:57:21.854Z,5.50
2019-02-14T07:59:28.127Z,5.58
2019-02-14T08:01:34.351Z,5.69
2019-02-14T08:03:40.652Z,5.67
2019-02-14T08:05:46.925Z,5.72
2019-02-14T08:07:53.157Z,5.77
2019-02-14T08:09:59.347Z,5.68
2019-02-14T08:12:05.589Z,5.73
2019-02-14T08:14:12.021Z,5.86
2019-02-14T08:16:18.185Z,5.83
2019-02-14T08:18:24.451Z,5.70
2019-02-14T08:20:30.774Z,5.74
2019-02-14T08:22:37.066Z,5.78
2019-02-14T08:24:43.323Z,5.93
2019-02-14T08:26:49.599Z,5.98
2019-02-14T08:28:55.750Z,6.04
2019-02-14T08:31:02.065Z,6.06
2019-02-14T08:33:08.381Z,6.04
2019-02-14T08:35:14.727Z,6.00
2019-02-14T08:37:20.933Z,6.03
2019-02-14T08:39:27.205Z,6.15
2019-02-14T08:41:33.362Z,6.27
2019-02-14T08:43:39.546Z,6.30
2019-02-14T08:45:45.775Z,6.21
2019-02-14T08:47:53.069Z,6.28
2019-02-14T08:49:59.484Z,6.43
2019-02-14T08:52:05.677Z,6.26
2019-02-14T08:54:11.842Z,6.40
2019-02-14T08:56:18.015Z,6.38
2019-02-14T08:58:24.236Z,6.10
2019-02-14T09:00:30.399Z,6.21
2019-02-14T09:02:36.584Z,6.39
2019-02-14T09:04:42.935Z,6.47
2019-02-14T09:06:49.087Z,6.48
2019-02-14T09:08:55.436Z,6.57
2019-02-14T09:11:01.588Z,6.44
2019-02-14T09:13:16.792Z,6.60
2019-02-14T09:15:16.242Z,6.53
2019-02-14T09:17:22.790Z,6.39
2019-02-14T09:19:29.646Z,6.35
2019-02-14T09:21:35.838Z,6.35
2019-02-14T09:23:42.198Z,6.63
2019-02-14T09:25:48.495Z,6.82
2019-02-14T09:27:54.830Z,6.98
2019-02-14T09:30:01.152Z,7.13
2019-02-14T09:32:07.463Z,7.04
2019-02-14T09:34:13.795Z,7.15
2019-02-14T09:36:19.950Z,7.23
2019-02-14T09:38:26.172Z,7.46
2019-02-14T09:40:33.220Z,7.51
2019-02-14T09:42:39.683Z,7.47
2019-02-14T09:44:45.848Z,7.40
2019-02-14T09:46:52.210Z,7.30
2019-02-14T09:48:58.521Z,7.46
2019-02-14T09:51:05.575Z,7.49
2019-02-14T09:53:11.911Z,7.36
2019-02-14T09:55:18.255Z,7.35
2019-02-14T09:57:26.371Z,7.28
2019-02-14T09:59:32.870Z,7.32
2019-02-14T10:01:39.030Z,7.63
2019-02-14T10:03:46.983Z,7.93
2019-02-14T10:05:55.078Z,7.90
2019-02-14T10:08:01.283Z,7.61
2019-02-14T10:10:15.100Z,7.40
2019-02-14T10:12:21.536Z,7.31
2019-02-14T10:14:27.666Z,7.50
2019-02-14T10:16:33.947Z,7.53
2019-02-14T10:18:40.333Z,7.68
2019-02-14T10:20:46.781Z,8.04
2019-02-14T10:22:55.011Z,7.95
2019-02-14T10:25:01.334Z,8.27
2019-02-14T10:27:07.758Z,8.12
2019-02-14T10:29:14.125Z,8.13
2019-02-14T10:31:23.787Z,8.33
2019-02-14T10:33:30.095Z,8.38
2019-02-14T10:35:36.380Z,8.21
2019-02-14T10:37:42.697Z,8.19
2019-02-14T10:39:48.848Z,8.27
2019-02-14T10:41:55.069Z,8.33
2019-02-14T10:44:01.355Z,7.97
2019-02-14T10:46:07.637Z,8.10
2019-02-14T10:48:14.021Z,8.28
2019-02-14T10:50:20.282Z,8.17
2019-02-14T10:52:26.493Z,8.16
2019-02-14T10:54:32.804Z,8.41
2019-02-14T10:56:39.356Z,8.67
2019-02-14T10:58:45.659Z,8.76
2019-02-14T11:00:51.871Z,8.47
2019-02-14T11:02:58.126Z,8.00
2019-02-14T11:05:04.804Z,7.96
2019-02-14T11:07:11.065Z,7.85
2019-02-14T11:09:18.313Z,7.93
2019-02-14T11:11:24.472Z,8.03
2019-02-14T11:13:30.846Z,8.12
2019-02-14T11:15:37.232Z,8.20
2019-02-14T11:17:43.691Z,8.06
2019-02-14T11:19:49.925Z,8.01
2019-02-14T11:21:56.239Z,7.93
2019-02-14T11:24:02.615Z,8.16
2019-02-14T11:26:08.882Z,8.34
2019-02-14T11:28:15.302Z,8.54
2019-02-14T11:30:22.730Z,8.41
2019-02-14T11:32:29.664Z,8.60
2019-02-14T11:34:35.998Z,8.46
2019-02-14T11:36:42.143Z,8.23
2019-02-14T11:38:48.516Z,7.84
2019-02-14T11:40:54.845Z,7.76
2019-02-14T11:43:01.136Z,7.43
2019-02-14T11:45:15.205Z,7.35
2019-02-14T11:47:21.425Z,7.33
2019-02-14T11:49:27.604Z,7.19
2019-02-14T11:51:33.843Z,7.21
2019-02-14T11:53:40.158Z,7.24
2019-02-14T11:55:46.449Z,7.10
2019-02-14T11:57:52.701Z,7.21
2019-02-14T11:59:58.940Z,7.33
2019-02-14T12:02:05.170Z,7.40
2019-02-14T12:04:11.320Z,7.54
2019-02-14T12:06:17.951Z,7.51
2019-02-14T12:08:24.352Z,7.47
2019-02-14T12:10:30.649Z,7.45
2019-02-14T12:12:37.898Z,7.63
2019-02-14T12:14:44.124Z,7.69
2019-02-14T12:16:50.336Z,7.82
2019-02-14T12:18:56.657Z,7.96
2019-02-14T12:21:02.891Z,7.97
2019-02-14T12:23:09.041Z,7.82
2019-02-14T12:25:21.857Z,7.77
2019-02-14T12:27:28.083Z,7.32
2019-02-14T12:29:34.378Z,7.28
2019-02-14T12:31:40.905Z,7.21
2019-02-14T12:33:47.160Z,7.28
2019-02-14T12:35:53.458Z,7.38
2019-02-14T12:37:59.810Z,7.47
2019-02-14T12:40:10.492Z,7.46
2019-02-14T12:42:16.861Z,7.43
2019-02-14T12:44:23.197Z,7.42
2019-02-14T12:46:29.555Z,7.38
2019-02-14T12:48:35.706Z,7.33
2019-02-14T12:50:41.887Z,7.26
2019-02-14T12:52:48.045Z,7.18
2019-02-14T12:54:54.275Z,7.15
2019-02-14T12:57:00.469Z,7.01
2019-02-14T12:59:06.626Z,6.97
2019-02-14T13:01:12.986Z,6.85
2019-02-14T13:03:19.384Z,6.90
2019-02-14T13:05:25.669Z,6.98
2019-02-14T13:07:31.975Z,7.03
2019-02-14T13:09:38.239Z,7.20
2019-02-14T13:11:45.752Z,7.37
2019-02-14T13:13:52.150Z,7.43
2019-02-14T13:15:58.384Z,7.65
2019-02-14T13:18:04.601Z,7.75
2019-02-14T13:20:10.986Z,7.88
2019-02-14T13:22:17.179Z,7.81
2019-02-14T13:24:23.438Z,7.76
2019-02-14T13:26:30.573Z,7.71
2019-02-14T13:28:36.887Z,7.75
2019-02-14T13:30:43.104Z,7.58
2019-02-14T13:32:50.365Z,7.61
2019-02-14T13:34:57.698Z,7.56
2019-02-14T13:37:06.015Z,7.61
2019-02-14T13:39:12.324Z,7.61
2019-02-14T13:41:30.655Z,7.49
2019-02-14T13:43:33.951Z,7.55
2019-02-14T13:45:40.287Z,7.58
2019-02-14T13:47:48.316Z,7.54
2019-02-14T13:49:54.603Z,7.54
2019-02-14T13:52:02.776Z,7.52
2019-02-14T13:54:09.093Z,7.54
2019-02-14T13:56:16.597Z,7.49
2019-02-14T13:58:22.823Z,7.41
2019-02-14T14:00:33.090Z,7.44
2019-02-14T14:02:39.448Z,7.36
2019-02-14T14:04:45.821Z,7.37
2019-02-14T14:06:52.216Z,7.38
2019-02-14T14:08:58.431Z,7.31
2019-02-14T14:11:04.648Z,7.22
2019-02-14T14:13:11.687Z,7.18
2019-02-14T14:15:19.552Z,7.11
2019-02-14T14:17:25.915Z,7.10
2019-02-14T14:19:33.841Z,7.09
2019-02-14T14:21:40.206Z,7.05
2019-02-14T14:23:48.054Z,6.98
2019-02-14T14:25:57.740Z,6.99
2019-02-14T14:28:04.096Z,6.94
2019-02-14T14:30:13.893Z,6.91
2019-02-14T14:32:20.222Z,6.92
2019-02-14T14:34:28.225Z,6.90
2019-02-14T14:36:34.592Z,6.78
2019-02-14T14:38:40.933Z,6.74
2019-02-14T14:40:48.854Z,6.70
2019-02-14T14:43:10.001Z,6.62
2019-02-14T14:45:17.958Z,6.58
2019-02-14T14:47:24.481Z,6.49
2019-02-14T14:49:30.783Z,6.48
2019-02-14T14:51:37.637Z,6.47
2019-02-14T14:53:45.708Z,6.46
2019-02-14T14:55:52.197Z,6.38
2019-02-14T14:57:58.548Z,6.33
2019-02-14T15:00:07.429Z,6.34
2019-02-14T15:02:13.662Z,6.31
2019-02-14T15:04:21.471Z,6.31
2019-02-14T15:06:27.744Z,6.30
2019-02-14T15:08:34.611Z,6.23
2019-02-14T15:10:40.888Z,6.21
2019-02-14T15:12:47.111Z,6.16
2019-02-14T15:14:54.555Z,6.11
2019-02-14T15:17:00.824Z,6.04
2019-02-14T15:19:07.111Z,5.98
2019-02-14T15:21:13.962Z,5.91
2019-02-14T15:23:20.270Z,5.84
2019-02-14T15:25:26.588Z,5.77
2019-02-14T15:27:34.762Z,5.69
2019-02-14T15:29:41.138Z,5.65
2019-02-14T15:31:47.438Z,5.58
2019-02-14T15:33:53.740Z,5.50
2019-02-14T15:35:59.990Z,5.44
2019-02-14T15:38:09.573Z,5.38
2019-02-14T15:40:15.120Z,5.31
2019-02-14T15:42:21.355Z,5.29
2019-02-14T15:44:27.531Z,5.22
2019-02-14T15:46:33.858Z,5.18
2019-02-14T15:48:40.192Z,5.12
2019-02-14T15:50:47.272Z,5.06
2019-02-14T15:52:54.692Z,5.01
2019-02-14T15:55:02.462Z,4.98
2019-02-14T15:57:09.323Z,4.93
2019-02-14T15:59:16.869Z,4.88
2019-02-14T16:01:23.771Z,4.84
2019-02-14T16:03:30.138Z,4.78
2019-02-14T16:05:40.130Z,4.75
2019-02-14T16:07:46.453Z,4.71
2019-02-14T16:09:52.665Z,4.69
2019-02-14T16:11:58.840Z,4.71
2019-02-14T16:14:05.260Z,4.70
2019-02-14T16:16:14.723Z,4.68
2019-02-14T16:18:22.753Z,4.64
2019-02-14T16:20:32.379Z,4.61
2019-02-14T16:22:42.419Z,4.58
2019-02-14T16:24:48.993Z,4.51
2019-02-14T16:27:01.721Z,4.46
2019-02-14T16:29:11.823Z,4.44
2019-02-14T16:31:18.059Z,4.41
2019-02-14T16:33:24.613Z,4.37
2019-02-14T16:35:31.849Z,4.27
2019-02-14T16:37:39.831Z,4.17
2019-02-14T16:39:51.788Z,4.10
2019-02-14T16:41:54.528Z,4.01
2019-02-14T16:44:02.461Z,3.93
2019-02-14T16:46:10.492Z,3.87
2019-02-14T16:48:16.737Z,3.82
2019-02-14T16:50:22.933Z,3.75
2019-02-14T16:52:31.729Z,3.68
2019-02-14T16:56:20.529Z,3.63
2019-02-14T16:58:27.096Z,3.51
2019-02-14T17:00:34.948Z,3.42
2019-02-14T17:02:42.846Z,3.36
2019-02-14T17:04:49.327Z,3.31
2019-02-14T17:06:57.561Z,3.31
2019-02-14T17:09:05.041Z,3.30
2019-02-14T17:11:13.274Z,3.32
2019-02-14T17:13:19.443Z,3.29
2019-02-14T17:15:26.354Z,3.26
2019-02-14T17:17:34.342Z,3.28
2019-02-14T17:19:40.656Z,3.31
2019-02-14T17:21:47.019Z,3.36
2019-02-14T17:23:53.348Z,3.44
2019-02-14T17:26:01.064Z,3.53
2019-02-14T17:28:11.186Z,3.63
2019-02-14T17:30:21.994Z,3.72
2019-02-14T17:32:28.470Z,3.80
2019-02-14T17:34:36.398Z,3.87
2019-02-14T17:36:42.732Z,3.93
2019-02-14T17:38:50.013Z,4.00
2019-02-14T17:40:57.909Z,4.05
2019-02-14T17:43:04.338Z,4.07
2019-02-14T17:45:11.358Z,4.08
2019-02-14T17:47:18.158Z,4.05
2019-02-14T17:49:24.518Z,4.05
2019-02-14T17:51:30.859Z,4.05
2019-02-14T17:53:37.197Z,4.06
2019-02-14T17:55:43.914Z,4.05
2019-02-14T17:57:51.921Z,4.09
2019-02-14T17:59:59.908Z,4.13
2019-02-14T18:02:06.331Z,4.16
2019-02-14T18:04:12.840Z,4.20
2019-02-14T18:06:19.178Z,4.22
2019-02-14T18:08:25.573Z,4.26
2019-02-14T18:10:32.113Z,4.22
2019-02-14T18:12:38.444Z,4.19
2019-02-14T18:14:44.844Z,4.22
2019-02-14T18:16:52.992Z,4.26
2019-02-14T18:18:59.301Z,4.34
2019-02-14T18:21:06.389Z,4.40
2019-02-14T18:23:12.927Z,4.45
2019-02-14T18:25:19.222Z,4.50
2019-02-14T18:27:27.040Z,4.55
2019-02-14T18:29:35.415Z,4.59
2019-02-14T18:31:41.779Z,4.62
2019-02-14T18:33:50.751Z,4.68
2019-02-14T18:35:58.592Z,4.69
2019-02-14T18:38:06.457Z,4.71
2019-02-14T18:40:13.435Z,4.72
2019-02-14T18:42:19.734Z,4.75
2019-02-14T18:44:27.771Z,4.79
2019-02-14T18:46:34.754Z,4.86
2019-02-14T18:48:41.066Z,4.88
2019-02-14T18:50:49.028Z,4.92
2019-02-14T18:52:59.938Z,4.95
2019-02-14T18:55:10.845Z,4.96
2019-02-14T18:57:17.039Z,4.99
2019-02-14T18:59:25.980Z,4.98
2019-02-14T19:01:33.786Z,4.98
2019-02-14T19:03:41.345Z,4.93
2019-02-14T19:05:50.533Z,4.89
2019-02-14T19:07:58.478Z,4.84
2019-02-14T19:10:16.153Z,4.83
2019-02-14T19:12:24.673Z,4.80
2019-02-14T19:14:34.767Z,4.80
2019-02-14T19:16:41.299Z,4.82
2019-02-14T19:18:47.639Z,4.80
2019-02-14T19:20:54.009Z,4.82
2019-02-14T19:23:01.983Z,4.81
2019-02-14T19:25:09.356Z,4.80
2019-02-14T19:27:21.242Z,4.83
2019-02-14T19:29:27.545Z,4.84
2019-02-14T19:31:33.890Z,4.86
2019-02-14T19:33:41.758Z,4.88
2019-02-14T19:35:53.406Z,4.97
2019-02-14T19:38:01.532Z,5.01
2019-02-14T19:40:10.500Z,5.06
2019-02-14T19:42:18.668Z,5.05
2019-02-14T19:44:27.838Z,5.11
2019-02-14T19:46:34.151Z,5.14
2019-02-14T19:48:42.108Z,5.17
2019-02-14T19:50:50.527Z,5.15
2019-02-14T19:52:59.216Z,5.17
2019-02-14T19:55:11.044Z,5.21
2019-02-14T19:57:18.608Z,5.25
2019-02-14T19:59:24.905Z,5.25
2019-02-14T20:01:32.782Z,5.27
2019-02-14T20:03:40.204Z,5.24
2019-02-14T20:05:47.663Z,5.17
2019-02-14T20:07:54.093Z,5.17
2019-02-14T20:10:02.227Z,5.13
2019-02-14T20:12:09.642Z,5.10
2019-02-14T20:14:17.630Z,5.08
2019-02-14T20:16:25.644Z,5.09
2019-02-14T20:18:33.713Z,5.11
2019-02-14T20:20:40.855Z,5.13
2019-02-14T20:22:47.185Z,5.14
2019-02-14T20:24:56.396Z,5.16
2019-02-14T20:27:05.212Z,5.17
2019-02-14T20:29:11.543Z,5.18
2019-02-14T20:31:19.412Z,5.21
2019-02-14T20:33:25.705Z,5.21
2019-02-14T20:35:33.745Z,5.22
2019-02-14T20:37:40.049Z,5.23
2019-02-14T20:39:47.015Z,5.25
2019-02-14T20:41:53.280Z,5.28
2019-02-14T20:44:01.209Z,5.29
2019-02-14T20:46:10.139Z,5.29
2019-02-14T20:48:19.489Z,5.29
2019-02-14T20:50:27.377Z,5.29
2019-02-14T20:52:33.833Z,5.28
2019-02-14T20:54:41.852Z,5.30
2019-02-14T20:56:48.621Z,5.30
2019-02-14T20:58:54.742Z,5.31
2019-02-14T21:01:02.778Z,5.30
2019-02-14T21:03:09.188Z,5.29
2019-02-14T21:05:15.795Z,5.23
2019-02-14T21:07:22.129Z,5.19
2019-02-14T21:09:29.799Z,5.19
2019-02-14T21:11:41.194Z,5.18
2019-02-14T21:13:48.563Z,5.15
2019-02-14T21:15:54.786Z,5.12
2019-02-14T21:18:01.089Z,5.01
2019-02-14T21:20:13.190Z,4.91
2019-02-14T21:22:21.531Z,4.89
2019-02-14T21:24:33.367Z,4.89
2019-02-14T21:26:42.885Z,4.91
2019-02-14T21:28:49.875Z,4.91
2019-02-14T21:30:57.470Z,4.89
2019-02-14T21:33:06.508Z,4.89
2019-02-14T21:35:12.300Z,4.86
2019-02-14T21:37:19.678Z,4.79
2019-02-14T21:39:27.335Z,4.80
2019-02-14T21:41:33.702Z,4.81
2019-02-14T21:43:40.091Z,4.80
2019-02-14T21:45:46.510Z,4.79
2019-02-14T21:47:52.822Z,4.78
2019-02-14T21:49:59.302Z,4.77
2019-02-14T21:52:05.698Z,4.79
2019-02-14T21:54:17.440Z,4.76
2019-02-14T21:56:22.677Z,4.76
2019-02-14T21:58:29.041Z,4.76
2019-02-14T22:00:35.472Z,4.78
2019-02-14T22:02:41.869Z,4.80
2019-02-14T22:04:48.373Z,4.77
2019-02-14T22:06:56.387Z,4.71
2019-02-14T22:09:02.848Z,4.73
2019-02-14T22:11:10.689Z,4.72
2019-02-14T22:13:17.013Z,4.71
2019-02-14T22:15:30.212Z,4.71
2019-02-14T22:17:36.659Z,4.69
2019-02-14T22:19:43.475Z,4.70
2019-02-14T22:21:49.829Z,4.69
2019-02-14T22:23:56.112Z,4.71
2019-02-14T22:26:02.507Z,4.70
2019-02-14T22:28:08.874Z,4.63
2019-02-14T22:30:18.697Z,4.63
2019-02-14T22:32:25.065Z,4.65
2019-02-14T22:34:31.434Z,4.66
2019-02-14T22:36:37.855Z,4.70
2019-02-14T22:38:44.319Z,4.72
2019-02-14T22:40:50.713Z,4.73
2019-02-14T22:42:57.119Z,4.77
2019-02-14T22:45:04.253Z,4.78
2019-02-14T22:47:31.751Z,4.77
2019-02-14T22:49:39.081Z,4.77
2019-02-14T22:51:45.240Z,4.77
2019-02-14T22:53:53.757Z,4.78
2019-02-14T22:55:59.950Z,4.75
2019-02-14T22:58:06.188Z,4.76
2019-02-14T23:00:33.398Z,4.76
2019-02-14T23:02:41.362Z,4.75
2019-02-14T23:04:47.606Z,4.71
2019-02-14T23:06:54.039Z,4.71
2019-02-14T23:09:00.217Z,4.65
2019-02-14T23:11:08.030Z,4.59
2019-02-14T23:13:14.402Z,4.62
2019-02-14T23:15:21.903Z,4.60
2019-02-14T23:17:29.219Z,4.54
2019-02-14T23:19:35.455Z,4.57
2019-02-14T23:21:41.662Z,4.63
2019-02-14T23:23:47.827Z,4.67
2019-02-14T23:25:54.124Z,4.72
2019-02-14T23:28:00.305Z,4.76
2019-02-14T23:30:13.709Z,4.78
2019-02-14T23:32:20.011Z,4.81
2019-02-14T23:34:26.292Z,4.79
2019-02-14T23:36:32.522Z,4.81
2019-02-14T23:38:38.633Z,4.82
2019-02-14T23:40:44.926Z,4.82
2019-02-14T23:42:51.091Z,4.80
2019-02-14T23:44:57.241Z,4.80
2019-02-14T23:47:03.713Z,4.79
2019-02-14T23:49:09.924Z,4.77
2019-02-14T23:51:16.225Z,4.75
2019-02-14T23:53:22.474Z,4.76
2019-02-14T23:55:28.774Z,4.75
2019-02-14T23:57:35.016Z,4.74
2019-02-14T23:59:41.209Z,4.74
